Norwegian Wind — C6LG6 — position and weather

sailwx.info

Track history (hours):
 
Tides and Currents Weather Stations Pressure Air Temp Water Temp Dewpoint Dewpoint Depression Visibility Wind Speed Wind Dir Waves Ship Positions

Norwegian Wind

Operator: Norwegian Cruise Line

Last reported at 2019-Jul-16 03:00 UTC. Time now 2019-Jul-16 12:05 UTC.
Position N 26°12' E 127°36'.

Type: Passenger vessel. MMSI: 308273000.

Wind from 090 at 23 knots

Barometer 1005.4 mb
Air temperature 31.0 ° C
Visibility: greater than 10.8 NM
Dewpoint 28.4 ° C
Water temperature 28.0 ° C

Date/timePositionNaut miles runAvg speedWind from/ knotsBaromVisibWave heightAir tempDewpointWater temp
2019-Jul-16 03:00N 26°12' E 127°36'121 8.1 090 / 231005.410.8 31.028.428.0
2019-Jul-15 12:00N 25°18' E 125°36'37 4.1 150 / 101004.310.8 29.026.331.2
2019-Jul-15 03:00N 24°48' E 125°12'15610.1 230 / 101004.010.8 35.032.531.2
2019-Jul-14 11:32N 25°10' E 122°22'313.3
2019-Jul-14 11:19N 25°10' E 122°19'614.4
2019-Jul-14 10:53N 25°11' E 122°12'614.0
2019-Jul-14 10:27N 25°13' E 122°06'713.1
2019-Jul-14 09:56N 25°14' E 121°58'613.9
2019-Jul-14 09:30N 25°13' E 121°52'612.5
2019-Jul-14 09:01N 25°11' E 121°45'3 5.6
2019-Jul-14 08:31N 25°08' E 121°45'0 0.0
2019-Jul-14 07:58N 25°08' E 121°45'0 0.0
2019-Jul-14 07:29N 25°08' E 121°45'0 0.0
2019-Jul-14 07:00N 25°08' E 121°45'0 0.0
2019-Jul-14 06:30N 25°08' E 121°45'0 0.0
2019-Jul-14 06:00N 25°08' E 121°45'0 0.0
2019-Jul-14 05:30N 25°08' E 121°45'0 0.0
2019-Jul-14 05:00N 25°08' E 121°45'0 0.0
2019-Jul-14 04:30N 25°08' E 121°45'0 0.0
2019-Jul-14 03:59N 25°08' E 121°45'0 0.0
2019-Jul-14 03:29N 25°08' E 121°45'0 0.0
2019-Jul-14 02:58N 25°08' E 121°45'0 0.2
2019-Jul-14 02:30N 25°08' E 121°45'2 3.1
2019-Jul-14 02:00N 25°10' E 121°45'91 6.5
2019-Jul-13 12:00N 24°36' E 123°18'6 2.0 160 / 161001.210.8 28.026.731.2
2019-Jul-13 09:00N 24°30' E 123°18'16 2.7 170 / 141001.210.8 30.026.031.2
2019-Jul-13 03:00N 24°30' E 123°00'21 2.9 180 / 191002.310.8 31.024.231.2
2019-Jul-12 19:39N 24°39' E 122°39'211.0
2019-Jul-12 19:26N 24°41' E 122°37'511.1
2019-Jul-12 18:57N 24°45' E 122°33'510.5
2019-Jul-12 18:26N 24°48' E 122°28'920.8
2019-Jul-12 18:00N 24°48' E 122°18'6153.9 240 / 121003.110.8 26.026.029.7
2019-Jul-12 17:57N 24°52' E 122°24'1610.8
2019-Jul-12 16:27N 25°04' E 122°13'610.5
2019-Jul-12 15:51N 25°09' E 122°08'410.5
2019-Jul-12 15:28N 25°11' E 122°05'1020.1
2019-Jul-12 15:00N 25°12' E 121°54'5150.4 240 / 81004.410.8 27.027.029.7
2019-Jul-12 14:57N 25°14' E 121°59'713.9
2019-Jul-12 14:29N 25°14' E 121°52'613.5
2019-Jul-12 14:00N 25°11' E 121°46'3 6.5
2019-Jul-12 13:30N 25°08' E 121°45'0 0.0
2019-Jul-12 12:57N 25°08' E 121°45'0 0.0
2019-Jul-12 12:24N 25°08' E 121°45'3 7.6
2019-Jul-12 12:00N 25°06' E 121°42'376.6 180 / 41004.710.8 27.027.029.7
2019-Jul-12 11:57N 25°08' E 121°45'0 0.0
2019-Jul-12 11:27N 25°08' E 121°45'0 0.0
2019-Jul-12 11:00N 25°08' E 121°45'0 0.0
2019-Jul-12 10:26N 25°08' E 121°45'0 0.0
2019-Jul-12 09:59N 25°08' E 121°45'0 0.0
2019-Jul-12 09:29N 25°08' E 121°45'0 0.0
2019-Jul-12 08:59N 25°08' E 121°45'0 0.0
2019-Jul-12 08:26N 25°08' E 121°45'0 0.0
2019-Jul-12 07:59N 25°08' E 121°45'0 0.1
2019-Jul-12 07:30N 25°08' E 121°45'1 2.8
2019-Jul-12 07:00N 25°09' E 121°45'611.7
2019-Jul-12 06:30N 25°15' E 121°45'4613.0
2019-Jul-12 03:00N 25°54' E 122°12'14816.4 180 / 161005.410.8 30.030.029.7
2019-Jul-11 18:00N 27°30' E 124°18'9916.5 180 / 141006.310.8 26.026.027.4
2019-Jul-11 12:00N 28°36' E 125°42'15617.3 090 / 161007.810.8 26.026.027.4
2019-Jul-11 03:00N 30°54' E 127°06'30525.4 280 / 191006.510.8 27.027.027.4
2019-Jul-10 15:00N 35°48' E 128°42'5210.2 170 / 23997.410.8 24.024.028.2
2019-Jul-10 09:57N 35°01' E 129°09'612.7
2019-Jul-10 09:30N 35°06' E 129°05'2 2.9
2019-Jul-10 08:58N 35°07' E 129°03'0 0.0
2019-Jul-10 08:28N 35°07' E 129°03'0 0.0
2019-Jul-10 07:58N 35°07' E 129°03'0 0.0
2019-Jul-10 07:28N 35°07' E 129°03'0 0.0
2019-Jul-10 06:58N 35°07' E 129°03'0 0.0
2019-Jul-10 06:28N 35°07' E 129°03'0 0.0
2019-Jul-10 05:58N 35°07' E 129°03'0 0.0
2019-Jul-10 05:28N 35°07' E 129°03'0 0.0
2019-Jul-10 04:58N 35°07' E 129°03'0 0.0
2019-Jul-10 04:28N 35°07' E 129°03'0 0.0
2019-Jul-10 03:58N 35°07' E 129°03'0 0.0
2019-Jul-10 03:28N 35°07' E 129°03'0 0.0
2019-Jul-10 02:58N 35°07' E 129°03'0 0.0
2019-Jul-10 02:28N 35°07' E 129°03'0 0.0
2019-Jul-10 01:58N 35°07' E 129°03'0 0.0
2019-Jul-10 01:28N 35°07' E 129°03'0 0.0
2019-Jul-10 00:58N 35°07' E 129°03'0 0.0
2019-Jul-10 00:28N 35°07' E 129°03'0 0.0
2019-Jul-09 23:58N 35°07' E 129°03'0 0.0
2019-Jul-09 23:28N 35°07' E 129°03'1 2.3
2019-Jul-09 23:00N 35°06' E 129°04'5 9.4
2019-Jul-09 22:30N 35°04' E 129°09'210 7.4
2019-Jul-08 18:00N 31°36' E 128°30'4715.8 080 / 8999.410.8 25.023.629.6
2019-Jul-08 15:00N 31°00' E 127°54'4715.8 330 / 121007.6 2.2 26.026.029.6
2019-Jul-08 12:00N 30°24' E 127°18'4013.2 260 / 191001.6 2.2 26.026.029.6
2019-Jul-08 09:00N 29°54' E 126°48'30817.1 250 / 161001.0 2.2 27.027.029.6
2019-Jul-07 15:00N 26°06' E 122°54'3713.8 270 / 161000.310.8 28.228.129.6
2019-Jul-07 12:19N 25°38' E 122°27'926.5
2019-Jul-07 12:00N 25°30' E 122°24'211.5 190 / 101000.310.8 28.228.129.6
2019-Jul-07 11:49N 25°32' E 122°23'615.1
2019-Jul-07 11:27N 25°28' E 122°19'815.9
2019-Jul-07 10:57N 25°22' E 122°12'916.2
2019-Jul-07 10:25N 25°17' E 122°05'818.8
2019-Jul-07 10:00N 25°14' E 121°57'918.6
2019-Jul-07 09:31N 25°13' E 121°47'5 9.3
2019-Jul-07 09:00N 25°08' E 121°45'0 0.7
2019-Jul-07 08:28N 25°08' E 121°45'0 0.0
2019-Jul-07 08:00N 25°08' E 121°45'0 0.0
2019-Jul-07 07:30N 25°08' E 121°45'0 0.0
2019-Jul-07 07:00N 25°08' E 121°45'0 0.0
2019-Jul-07 06:28N 25°08' E 121°45'0 0.0
2019-Jul-07 05:58N 25°08' E 121°45'0 0.0
2019-Jul-07 05:28N 25°08' E 121°45'0 0.0
2019-Jul-07 04:58N 25°08' E 121°45'0 0.0
2019-Jul-07 04:28N 25°08' E 121°45'0 0.0
2019-Jul-07 03:58N 25°08' E 121°45'0 0.0
2019-Jul-07 03:28N 25°08' E 121°45'0 0.0
2019-Jul-07 02:58N 25°08' E 121°45'2 2.0
2019-Jul-07 02:00N 25°10' E 121°45'5 9.7
2019-Jul-07 01:30N 25°15' E 121°46'5 9.1
2019-Jul-07 00:57N 25°16' E 121°51'5 9.4
2019-Jul-07 00:28N 25°15' E 121°56'510.5
2019-Jul-06 23:58N 25°14' E 122°02'510.9
2019-Jul-06 23:30N 25°12' E 122°07'610.1
2019-Jul-06 22:56N 25°11' E 122°13'1 0.6
2019-Jul-06 21:51N 25°10' E 122°13'0 0.6
2019-Jul-06 21:28N 25°10' E 122°13'0 0.4
2019-Jul-06 20:45N 25°10' E 122°13'0 0.4
2019-Jul-06 20:29N 25°10' E 122°13'1 0.8
2019-Jul-06 19:46N 25°10' E 122°13'0 1.0
2019-Jul-06 19:24N 25°10' E 122°14'1 1.6
2019-Jul-06 19:00N 25°10' E 122°15'1 2.4
2019-Jul-06 18:30N 25°10' E 122°16'3610.3
2019-Jul-06 15:00N 25°00' E 122°54'21 7.0 160 / 161000.810.8 29.029.029.8
2019-Jul-06 12:00N 24°42' E 123°06'   140 / 12999.810.8 29.029.029.8
Track history (hours):
 
Tides and Currents Weather Stations Pressure Air Temp Water Temp Dewpoint Dewpoint Depression Visibility Wind Speed Wind Dir Waves Ship Positions

Norwegian Wind

Operator: Norwegian Cruise Line

Last reported at 2019-Jul-16 03:00 UTC. Time now 2019-Jul-16 12:05 UTC.
Position N 26°12' E 127°36'.

Type: Passenger vessel. MMSI: 308273000.

Wind from 090 at 23 knots

Barometer 1005.4 mb
Air temperature 31.0 ° C
Visibility: greater than 10.8 NM
Dewpoint 28.4 ° C
Water temperature 28.0 ° C

Date/timePositionNaut miles runAvg speedWind from/ knotsBaromVisibWave heightAir tempDewpointWater temp
2019-Jul-16 03:00N 26°12' E 127°36'121 8.1 090 / 231005.410.8 31.028.428.0
2019-Jul-15 12:00N 25°18' E 125°36'37 4.1 150 / 101004.310.8 29.026.331.2
2019-Jul-15 03:00N 24°48' E 125°12'15610.1 230 / 101004.010.8 35.032.531.2
2019-Jul-14 11:32N 25°10' E 122°22'313.3
2019-Jul-14 11:19N 25°10' E 122°19'614.4
2019-Jul-14 10:53N 25°11' E 122°12'614.0
2019-Jul-14 10:27N 25°13' E 122°06'713.1
2019-Jul-14 09:56N 25°14' E 121°58'613.9
2019-Jul-14 09:30N 25°13' E 121°52'612.5
2019-Jul-14 09:01N 25°11' E 121°45'3 5.6
2019-Jul-14 08:31N 25°08' E 121°45'0 0.0
2019-Jul-14 07:58N 25°08' E 121°45'0 0.0
2019-Jul-14 07:29N 25°08' E 121°45'0 0.0
2019-Jul-14 07:00N 25°08' E 121°45'0 0.0
2019-Jul-14 06:30N 25°08' E 121°45'0 0.0
2019-Jul-14 06:00N 25°08' E 121°45'0 0.0
2019-Jul-14 05:30N 25°08' E 121°45'0 0.0
2019-Jul-14 05:00N 25°08' E 121°45'0 0.0
2019-Jul-14 04:30N 25°08' E 121°45'0 0.0
2019-Jul-14 03:59N 25°08' E 121°45'0 0.0
2019-Jul-14 03:29N 25°08' E 121°45'0 0.0
2019-Jul-14 02:58N 25°08' E 121°45'0 0.2
2019-Jul-14 02:30N 25°08' E 121°45'2 3.1
2019-Jul-14 02:00N 25°10' E 121°45'91 6.5
2019-Jul-13 12:00N 24°36' E 123°18'6 2.0 160 / 161001.210.8 28.026.731.2
2019-Jul-13 09:00N 24°30' E 123°18'16 2.7 170 / 141001.210.8 30.026.031.2
2019-Jul-13 03:00N 24°30' E 123°00'21 2.9 180 / 191002.310.8 31.024.231.2
2019-Jul-12 19:39N 24°39' E 122°39'211.0
2019-Jul-12 19:26N 24°41' E 122°37'511.1
2019-Jul-12 18:57N 24°45' E 122°33'510.5
2019-Jul-12 18:26N 24°48' E 122°28'920.8
2019-Jul-12 18:00N 24°48' E 122°18'6153.9 240 / 121003.110.8 26.026.029.7
2019-Jul-12 17:57N 24°52' E 122°24'1610.8
2019-Jul-12 16:27N 25°04' E 122°13'610.5
2019-Jul-12 15:51N 25°09' E 122°08'410.5
2019-Jul-12 15:28N 25°11' E 122°05'1020.1
2019-Jul-12 15:00N 25°12' E 121°54'5150.4 240 / 81004.410.8 27.027.029.7
2019-Jul-12 14:57N 25°14' E 121°59'713.9
2019-Jul-12 14:29N 25°14' E 121°52'613.5
2019-Jul-12 14:00N 25°11' E 121°46'3 6.5
2019-Jul-12 13:30N 25°08' E 121°45'0 0.0
2019-Jul-12 12:57N 25°08' E 121°45'0 0.0
2019-Jul-12 12:24N 25°08' E 121°45'3 7.6
2019-Jul-12 12:00N 25°06' E 121°42'376.6 180 / 41004.710.8 27.027.029.7
2019-Jul-12 11:57N 25°08' E 121°45'0 0.0
2019-Jul-12 11:27N 25°08' E 121°45'0 0.0
2019-Jul-12 11:00N 25°08' E 121°45'0 0.0
2019-Jul-12 10:26N 25°08' E 121°45'0 0.0
2019-Jul-12 09:59N 25°08' E 121°45'0 0.0
2019-Jul-12 09:29N 25°08' E 121°45'0 0.0
2019-Jul-12 08:59N 25°08' E 121°45'0 0.0
2019-Jul-12 08:26N 25°08' E 121°45'0 0.0
2019-Jul-12 07:59N 25°08' E 121°45'0 0.1
2019-Jul-12 07:30N 25°08' E 121°45'1 2.8
2019-Jul-12 07:00N 25°09' E 121°45'611.7
2019-Jul-12 06:30N 25°15' E 121°45'4613.0
2019-Jul-12 03:00N 25°54' E 122°12'14816.4 180 / 161005.410.8 30.030.029.7
2019-Jul-11 18:00N 27°30' E 124°18'9916.5 180 / 141006.310.8 26.026.027.4
2019-Jul-11 12:00N 28°36' E 125°42'15617.3 090 / 161007.810.8 26.026.027.4
2019-Jul-11 03:00N 30°54' E 127°06'30525.4 280 / 191006.510.8 27.027.027.4
2019-Jul-10 15:00N 35°48' E 128°42'5210.2 170 / 23997.410.8 24.024.028.2
2019-Jul-10 09:57N 35°01' E 129°09'612.7
2019-Jul-10 09:30N 35°06' E 129°05'2 2.9
2019-Jul-10 08:58N 35°07' E 129°03'0 0.0
2019-Jul-10 08:28N 35°07' E 129°03'0 0.0
2019-Jul-10 07:58N 35°07' E 129°03'0 0.0
2019-Jul-10 07:28N 35°07' E 129°03'0 0.0
2019-Jul-10 06:58N 35°07' E 129°03'0 0.0
2019-Jul-10 06:28N 35°07' E 129°03'0 0.0
2019-Jul-10 05:58N 35°07' E 129°03'0 0.0
2019-Jul-10 05:28N 35°07' E 129°03'0 0.0
2019-Jul-10 04:58N 35°07' E 129°03'0 0.0
2019-Jul-10 04:28N 35°07' E 129°03'0 0.0
2019-Jul-10 03:58N 35°07' E 129°03'0 0.0
2019-Jul-10 03:28N 35°07' E 129°03'0 0.0
2019-Jul-10 02:58N 35°07' E 129°03'0 0.0
2019-Jul-10 02:28N 35°07' E 129°03'0 0.0
2019-Jul-10 01:58N 35°07' E 129°03'0 0.0
2019-Jul-10 01:28N 35°07' E 129°03'0 0.0
2019-Jul-10 00:58N 35°07' E 129°03'0 0.0
2019-Jul-10 00:28N 35°07' E 129°03'0 0.0
2019-Jul-09 23:58N 35°07' E 129°03'0 0.0
2019-Jul-09 23:28N 35°07' E 129°03'1 2.3
2019-Jul-09 23:00N 35°06' E 129°04'5 9.4
2019-Jul-09 22:30N 35°04' E 129°09'210 7.4
2019-Jul-08 18:00N 31°36' E 128°30'4715.8 080 / 8999.410.8 25.023.629.6
2019-Jul-08 15:00N 31°00' E 127°54'4715.8 330 / 121007.6 2.2 26.026.029.6
2019-Jul-08 12:00N 30°24' E 127°18'4013.2 260 / 191001.6 2.2 26.026.029.6
2019-Jul-08 09:00N 29°54' E 126°48'30817.1 250 / 161001.0 2.2 27.027.029.6
2019-Jul-07 15:00N 26°06' E 122°54'3713.8 270 / 161000.310.8 28.228.129.6
2019-Jul-07 12:19N 25°38' E 122°27'926.5
2019-Jul-07 12:00N 25°30' E 122°24'211.5 190 / 101000.310.8 28.228.129.6
2019-Jul-07 11:49N 25°32' E 122°23'615.1
2019-Jul-07 11:27N 25°28' E 122°19'815.9
2019-Jul-07 10:57N 25°22' E 122°12'916.2
2019-Jul-07 10:25N 25°17' E 122°05'818.8
2019-Jul-07 10:00N 25°14' E 121°57'918.6
2019-Jul-07 09:31N 25°13' E 121°47'5 9.3
2019-Jul-07 09:00N 25°08' E 121°45'0 0.7
2019-Jul-07 08:28N 25°08' E 121°45'0 0.0
2019-Jul-07 08:00N 25°08' E 121°45'0 0.0
2019-Jul-07 07:30N 25°08' E 121°45'0 0.0
2019-Jul-07 07:00N 25°08' E 121°45'0 0.0
2019-Jul-07 06:28N 25°08' E 121°45'0 0.0
2019-Jul-07 05:58N 25°08' E 121°45'0 0.0
2019-Jul-07 05:28N 25°08' E 121°45'0 0.0
2019-Jul-07 04:58N 25°08' E 121°45'0 0.0
2019-Jul-07 04:28N 25°08' E 121°45'0 0.0
2019-Jul-07 03:58N 25°08' E 121°45'0 0.0
2019-Jul-07 03:28N 25°08' E 121°45'0 0.0
2019-Jul-07 02:58N 25°08' E 121°45'2 2.0
2019-Jul-07 02:00N 25°10' E 121°45'5 9.7
2019-Jul-07 01:30N 25°15' E 121°46'5 9.1
2019-Jul-07 00:57N 25°16' E 121°51'5 9.4
2019-Jul-07 00:28N 25°15' E 121°56'510.5
2019-Jul-06 23:58N 25°14' E 122°02'510.9
2019-Jul-06 23:30N 25°12' E 122°07'610.1
2019-Jul-06 22:56N 25°11' E 122°13'1 0.6
2019-Jul-06 21:51N 25°10' E 122°13'0 0.6
2019-Jul-06 21:28N 25°10' E 122°13'0 0.4
2019-Jul-06 20:45N 25°10' E 122°13'0 0.4
2019-Jul-06 20:29N 25°10' E 122°13'1 0.8
2019-Jul-06 19:46N 25°10' E 122°13'0 1.0
2019-Jul-06 19:24N 25°10' E 122°14'1 1.6
2019-Jul-06 19:00N 25°10' E 122°15'1 2.4
2019-Jul-06 18:30N 25°10' E 122°16'3610.3
2019-Jul-06 15:00N 25°00' E 122°54'21 7.0 160 / 161000.810.8 29.029.029.8
2019-Jul-06 12:00N 24°42' E 123°06'   140 / 12999.810.8 29.029.029.8

Dump ship's entire track history